createdAt,value
2023-04-20T00:00:37.183Z,1013.38
2023-04-20T00:03:45.507Z,1013.37
2023-04-20T00:06:54.299Z,1013.36
2023-04-20T00:10:01.654Z,1013.31
2023-04-20T00:13:12.163Z,1013.26
2023-04-20T00:16:21.055Z,1013.24
2023-04-20T00:19:28.109Z,1013.23
2023-04-20T00:22:36.091Z,1013.38
2023-04-20T00:25:43.952Z,1013.20
2023-04-20T00:28:52.469Z,1013.14
2023-04-20T00:31:59.769Z,1013.10
2023-04-20T00:35:07.334Z,1013.05
2023-04-20T00:38:15.690Z,1013.01
2023-04-20T00:41:23.396Z,1013.02
2023-04-20T00:44:30.735Z,1012.96
2023-04-20T00:47:39.580Z,1012.97
2023-04-20T00:50:47.332Z,1012.85
2023-04-20T00:53:54.296Z,1012.78
2023-04-20T00:57:03.510Z,1012.73
2023-04-20T01:00:11.036Z,1012.72
2023-04-20T01:03:18.596Z,1012.74
2023-04-20T01:06:26.653Z,1012.66
2023-04-20T01:09:35.470Z,1012.64
2023-04-20T01:12:42.893Z,1012.62
2023-04-20T01:15:50.320Z,1012.56
2023-04-20T01:18:59.486Z,1012.53
2023-04-20T01:22:06.809Z,1012.46
2023-04-20T01:25:14.214Z,1012.53
2023-04-20T01:28:23.129Z,1012.47
2023-04-20T01:31:30.180Z,1012.39
2023-04-20T01:34:38.304Z,1012.43
2023-04-20T01:37:47.416Z,1012.43
2023-04-20T01:40:54.349Z,1012.38
2023-04-20T01:44:01.930Z,1012.38
2023-04-20T01:47:11.160Z,1012.24
2023-04-20T01:50:18.058Z,1012.31
2023-04-20T01:53:25.617Z,1012.31
2023-04-20T01:56:32.954Z,1012.29
2023-04-20T01:59:41.698Z,1012.22
2023-04-20T02:02:49.578Z,1012.22
2023-04-20T02:05:56.965Z,1012.24
2023-04-20T02:09:05.494Z,1012.27
2023-04-20T02:12:12.542Z,1012.23
2023-04-20T02:15:20.969Z,1012.17
2023-04-20T02:18:31.065Z,1012.16
2023-04-20T02:21:38.366Z,1012.13
2023-04-20T02:24:45.886Z,1012.14
2023-04-20T02:27:54.428Z,1012.11
2023-04-20T02:31:02.580Z,1012.11
2023-04-20T02:34:10.500Z,1012.11
2023-04-20T02:37:17.545Z,1012.07
2023-04-20T02:40:26.704Z,1012.13
2023-04-20T02:43:34.579Z,1012.11
2023-04-20T02:46:41.639Z,1012.16
2023-04-20T02:49:50.909Z,1012.10
2023-04-20T02:52:58.635Z,1012.16
2023-04-20T02:56:06.064Z,1012.20
2023-04-20T02:59:14.995Z,1012.18
2023-04-20T03:02:22.881Z,1012.13
2023-04-20T03:05:30.653Z,1012.12
2023-04-20T03:08:39.458Z,1012.19
2023-04-20T03:11:46.973Z,1012.17
2023-04-20T03:14:54.210Z,1012.15
2023-04-20T03:18:01.808Z,1012.13
2023-04-20T03:21:10.582Z,1012.17
2023-04-20T03:24:18.124Z,1012.22
2023-04-20T03:27:25.197Z,1012.17
2023-04-20T03:30:34.217Z,1012.14
2023-04-20T03:33:41.800Z,1012.16
2023-04-20T03:36:48.831Z,1012.21
2023-04-20T03:39:57.582Z,1012.16
2023-04-20T03:43:05.257Z,1012.23
2023-04-20T03:46:12.248Z,1012.16
2023-04-20T03:49:21.186Z,1012.25
2023-04-20T03:52:28.852Z,1012.22
2023-04-20T03:55:36.197Z,1012.19
2023-04-20T03:58:43.652Z,1012.11
2023-04-20T04:01:52.511Z,1012.09
2023-04-20T04:05:00.548Z,1012.10
2023-04-20T04:08:07.817Z,1012.16
2023-04-20T04:11:16.265Z,1012.21
2023-04-20T04:14:23.953Z,1012.02
2023-04-20T04:17:31.090Z,1012.12
2023-04-20T04:20:40.142Z,1012.07
2023-04-20T04:23:47.844Z,1012.15
2023-04-20T04:26:54.914Z,1012.12
2023-04-20T04:30:04.082Z,1012.07
2023-04-20T04:33:11.522Z,1012.13
2023-04-20T04:36:18.555Z,1012.13
2023-04-20T04:39:27.700Z,1012.13
2023-04-20T04:42:35.104Z,1012.12
2023-04-20T04:45:42.502Z,1012.11
2023-04-20T04:48:49.634Z,1012.16
2023-04-20T04:51:58.668Z,1012.07
2023-04-20T04:55:05.956Z,1012.12
2023-04-20T04:58:13.016Z,1012.15
2023-04-20T05:01:22.150Z,1012.21
2023-04-20T05:04:29.313Z,1012.21
2023-04-20T05:07:37.017Z,1012.24
2023-04-20T05:10:46.197Z,1012.27
2023-04-20T05:13:53.808Z,1012.17
2023-04-20T05:17:01.129Z,1012.25
2023-04-20T05:20:09.952Z,1012.19
2023-04-20T05:23:17.687Z,1012.28
2023-04-20T05:26:25.239Z,1012.31
2023-04-20T05:29:32.683Z,1012.43
2023-04-20T05:32:42.312Z,1012.35
2023-04-20T05:35:49.431Z,1012.39
2023-04-20T05:38:56.909Z,1012.47
2023-04-20T05:42:06.118Z,1012.53
2023-04-20T05:45:13.332Z,1012.48
2023-04-20T05:48:21.044Z,1012.58
2023-04-20T05:51:30.101Z,1012.59
2023-04-20T05:54:37.310Z,1012.59
2023-04-20T05:57:45.121Z,1012.64
2023-04-20T06:00:53.982Z,1012.65
2023-04-20T06:04:01.763Z,1012.67
2023-04-20T06:07:09.713Z,1012.64
2023-04-20T06:10:17.017Z,1012.64
2023-04-20T06:13:25.768Z,1012.65
2023-04-20T06:16:33.671Z,1012.58
2023-04-20T06:19:41.185Z,1012.59
2023-04-20T06:22:49.973Z,1012.59
2023-04-20T06:25:57.336Z,1012.55
2023-04-20T06:29:04.802Z,1012.55
2023-04-20T06:32:13.924Z,1012.62
2023-04-20T06:35:21.334Z,1012.61
2023-04-20T06:38:29.006Z,1012.61
2023-04-20T06:41:37.825Z,1012.64
2023-04-20T06:44:45.284Z,1012.60
2023-04-20T06:47:53.173Z,1012.60
2023-04-20T06:51:00.542Z,1012.66
2023-04-20T06:54:09.587Z,1012.67
2023-04-20T06:57:17.671Z,1012.67
2023-04-20T07:00:24.995Z,1012.62
2023-04-20T07:03:34.528Z,1012.66
2023-04-20T07:06:42.420Z,1012.64
2023-04-20T07:09:49.474Z,1012.62
2023-04-20T07:12:58.869Z,1012.60
2023-04-20T07:16:06.487Z,1012.56
2023-04-20T07:19:13.740Z,1012.67
2023-04-20T07:22:22.989Z,1012.69
2023-04-20T07:25:30.095Z,1012.73
2023-04-20T07:28:37.730Z,1012.71
2023-04-20T07:31:46.811Z,1012.63
2023-04-20T07:34:53.993Z,1012.63
2023-04-20T07:38:01.850Z,1012.65
2023-04-20T07:41:09.733Z,1012.78
2023-04-20T07:44:18.950Z,1012.65
2023-04-20T07:47:26.650Z,1012.69
2023-04-20T07:50:34.634Z,1012.76
2023-04-20T07:53:43.470Z,1012.85
2023-04-20T07:56:50.989Z,1012.79
2023-04-20T07:59:58.325Z,1012.84
2023-04-20T08:03:07.720Z,1012.80
2023-04-20T08:06:15.421Z,1012.84
2023-04-20T08:09:23.034Z,1012.82
2023-04-20T08:12:32.382Z,1012.82
2023-04-20T08:15:40.049Z,1012.82
2023-04-20T08:18:47.726Z,1012.87
2023-04-20T08:21:55.691Z,1012.80
2023-04-20T08:25:04.255Z,1012.84
2023-04-20T08:28:19.559Z,1012.85
2023-04-20T08:31:16.941Z,1012.87
2023-04-20T08:34:25.343Z,1012.88
2023-04-20T08:37:33.330Z,1012.90
2023-04-20T08:40:40.645Z,1012.91
2023-04-20T08:43:49.605Z,1012.85
2023-04-20T08:46:57.219Z,1012.93
2023-04-20T08:50:05.102Z,1012.92
2023-04-20T08:53:13.984Z,1012.96
2023-04-20T08:56:21.300Z,1012.92
2023-04-20T08:59:28.836Z,1012.91
2023-04-20T09:02:36.908Z,1012.85
2023-04-20T09:05:45.773Z,1012.84
2023-04-20T09:08:53.262Z,1012.87
2023-04-20T09:12:01.227Z,1012.92
2023-04-20T09:15:09.931Z,1012.87
2023-04-20T09:18:17.392Z,1012.87
2023-04-20T09:21:25.198Z,1012.87
2023-04-20T09:24:33.667Z,1012.91
2023-04-20T09:27:41.328Z,1013.00
2023-04-20T09:30:50.158Z,1012.94
2023-04-20T09:33:58.640Z,1012.93
2023-04-20T09:37:07.391Z,1013.02
2023-04-20T09:40:15.279Z,1013.00
2023-04-20T09:43:24.012Z,1013.04
2023-04-20T09:46:32.059Z,1013.04
2023-04-20T09:49:39.532Z,1012.99
2023-04-20T09:52:47.227Z,1013.00
2023-04-20T09:55:56.209Z,1013.08
2023-04-20T09:59:03.753Z,1013.06
2023-04-20T10:02:11.613Z,1013.12
2023-04-20T10:05:20.489Z,1013.02
2023-04-20T10:08:27.794Z,1013.07
2023-04-20T10:11:49.085Z,1012.96
2023-04-20T10:14:41.284Z,1012.88
2023-04-20T10:17:49.200Z,1012.88
2023-04-20T10:20:57.012Z,1013.01
2023-04-20T10:24:05.462Z,1013.03
2023-04-20T10:27:13.079Z,1013.02
2023-04-20T10:30:21.146Z,1013.02
2023-04-20T10:33:28.245Z,1013.07
2023-04-20T10:36:37.151Z,1013.10
2023-04-20T10:39:44.466Z,1013.02
2023-04-20T10:42:51.706Z,1013.10
2023-04-20T10:46:01.387Z,1012.96
2023-04-20T10:49:08.908Z,1012.99
2023-04-20T10:52:16.465Z,1012.86
2023-04-20T10:55:25.757Z,1012.90
2023-04-20T10:58:33.136Z,1012.79
2023-04-20T11:01:40.719Z,1012.83
2023-04-20T11:04:49.732Z,1012.83
2023-04-20T11:07:57.627Z,1012.80
2023-04-20T11:11:05.141Z,1012.81
2023-04-20T11:14:12.923Z,1012.71
2023-04-20T11:17:22.110Z,1012.78
2023-04-20T11:20:29.240Z,1012.69
2023-04-20T11:23:37.055Z,1012.63
2023-04-20T11:26:46.304Z,1012.57
2023-04-20T11:29:53.435Z,1012.50
2023-04-20T11:33:01.169Z,1012.43
2023-04-20T11:36:10.028Z,1012.21
2023-04-20T11:39:17.692Z,1012.26
2023-04-20T11:42:25.500Z,1012.30
2023-04-20T11:45:36.089Z,1012.36
2023-04-20T11:48:44.566Z,1012.25
2023-04-20T11:51:52.026Z,1012.25
2023-04-20T11:54:59.531Z,1012.31
2023-04-20T11:58:08.761Z,1012.28
2023-04-20T12:01:16.193Z,1012.25
2023-04-20T12:04:23.965Z,1012.32
2023-04-20T12:07:33.242Z,1012.36
2023-04-20T12:10:40.907Z,1012.33
2023-04-20T12:13:48.299Z,1012.29
2023-04-20T12:16:58.762Z,1012.31
2023-04-20T12:20:06.018Z,1012.42
2023-04-20T12:23:13.824Z,1012.33
2023-04-20T12:26:31.934Z,1012.28
2023-04-20T12:29:27.265Z,1012.17
2023-04-20T12:32:35.137Z,1012.16
2023-04-20T12:35:44.788Z,1012.16
2023-04-20T12:38:52.348Z,1012.12
2023-04-20T12:42:00.022Z,1012.13
2023-04-20T12:45:07.369Z,1012.12
2023-04-20T12:48:16.768Z,1012.21
2023-04-20T12:51:24.272Z,1012.22
2023-04-20T12:54:31.737Z,1012.16
2023-04-20T12:57:41.061Z,1012.21
2023-04-20T13:00:48.557Z,1012.04
2023-04-20T13:03:56.309Z,1012.09
2023-04-20T13:07:05.610Z,1012.11
2023-04-20T13:10:12.788Z,1012.00
2023-04-20T13:13:20.552Z,1012.02
2023-04-20T13:16:30.049Z,1012.06
2023-04-20T13:19:37.099Z,1012.06
2023-04-20T13:22:56.811Z,1012.12
2023-04-20T13:25:49.878Z,1012.12
2023-04-20T13:28:58.321Z,1012.16
2023-04-20T13:32:06.138Z,1012.17
2023-04-20T13:35:13.780Z,1012.17
2023-04-20T13:38:22.521Z,1012.08
2023-04-20T13:41:30.083Z,1012.10
2023-04-20T13:44:37.552Z,1012.01
2023-04-20T13:47:47.193Z,1012.06
2023-04-20T13:50:54.527Z,1012.11
2023-04-20T13:54:01.965Z,1012.14
2023-04-20T13:57:11.274Z,1012.15
2023-04-20T14:00:18.867Z,1012.18
2023-04-20T14:03:26.634Z,1012.22
2023-04-20T14:06:34.567Z,1012.22
2023-04-20T14:09:43.195Z,1012.18
2023-04-20T14:12:51.074Z,1012.18
2023-04-20T14:15:58.945Z,1012.18
2023-04-20T14:19:07.554Z,1012.29
2023-04-20T14:22:15.499Z,1012.28
2023-04-20T14:25:23.276Z,1012.33
2023-04-20T14:28:33.441Z,1012.31
2023-04-20T14:31:41.244Z,1012.21
2023-04-20T14:34:48.695Z,1012.17
2023-04-20T14:37:57.580Z,1012.22
2023-04-20T14:41:05.234Z,1012.24
2023-04-20T14:44:12.852Z,1012.18
2023-04-20T14:47:20.331Z,1012.24
2023-04-20T14:50:29.443Z,1012.22
2023-04-20T14:53:37.152Z,1012.23
2023-04-20T14:56:44.597Z,1012.29
2023-04-20T14:59:53.184Z,1012.26
2023-04-20T15:03:01.282Z,1012.20
2023-04-20T15:06:09.158Z,1012.13
2023-04-20T15:09:17.607Z,1012.06
2023-04-20T15:12:25.541Z,1012.07
2023-04-20T15:15:46.938Z,1012.03
2023-04-20T15:18:39.172Z,1011.92
2023-04-20T15:21:46.885Z,1011.86
2023-04-20T15:24:54.686Z,1011.72
2023-04-20T15:28:03.838Z,1011.75
2023-04-20T15:31:11.644Z,1011.71
2023-04-20T15:34:19.313Z,1011.76
2023-04-20T15:37:26.738Z,1011.71
2023-04-20T15:40:35.505Z,1011.78
2023-04-20T15:43:43.447Z,1011.80
2023-04-20T15:46:50.904Z,1011.86
2023-04-20T15:49:59.828Z,1011.83
2023-04-20T15:53:07.551Z,1011.87
2023-04-20T15:56:15.215Z,1011.82
2023-04-20T15:59:24.125Z,1011.86
2023-04-20T16:02:32.063Z,1011.75
2023-04-20T16:05:39.429Z,1011.73
2023-04-20T16:08:48.273Z,1011.67
2023-04-20T16:11:56.080Z,1011.66
2023-04-20T16:15:03.097Z,1011.59
2023-04-20T16:18:10.839Z,1011.61
2023-04-20T16:21:19.857Z,1011.49
2023-04-20T16:24:27.038Z,1011.48
2023-04-20T16:27:34.989Z,1011.39
2023-04-20T16:30:44.159Z,1011.32
2023-04-20T16:33:51.124Z,1011.27
2023-04-20T16:36:58.985Z,1011.23
2023-04-20T16:40:08.064Z,1011.22
2023-04-20T16:43:15.453Z,1011.29
2023-04-20T16:46:22.886Z,1011.23
2023-04-20T16:49:31.733Z,1011.30
2023-04-20T16:52:39.366Z,1011.21
2023-04-20T16:55:46.830Z,1011.22
2023-04-20T16:58:54.167Z,1011.22
2023-04-20T17:02:03.603Z,1011.17
2023-04-20T17:05:11.137Z,1011.15
2023-04-20T17:08:19.692Z,1011.14
2023-04-20T17:11:29.021Z,1011.17
2023-04-20T17:14:36.383Z,1011.26
2023-04-20T17:17:44.911Z,1011.37
2023-04-20T17:20:54.293Z,1011.43
2023-04-20T17:24:01.379Z,1011.46
2023-04-20T17:27:08.832Z,1011.38
2023-04-20T17:30:18.392Z,1011.43
2023-04-20T17:33:26.202Z,1011.41
2023-04-20T17:36:34.700Z,1011.38
2023-04-20T17:39:43.507Z,1011.33
2023-04-20T17:42:51.365Z,1011.38
2023-04-20T17:46:00.344Z,1011.41
2023-04-20T17:49:08.020Z,1011.44
2023-04-20T17:52:17.073Z,1011.40
2023-04-20T17:55:25.132Z,1011.51
2023-04-20T17:58:32.540Z,1011.45
2023-04-20T18:01:41.984Z,1011.50
2023-04-20T18:04:49.829Z,1011.58
2023-04-20T18:07:57.721Z,1011.55
2023-04-20T18:11:06.640Z,1011.64
2023-04-20T18:14:14.390Z,1011.64
2023-04-20T18:17:22.372Z,1011.69
2023-04-20T18:20:32.606Z,1011.70
2023-04-20T18:23:40.327Z,1011.71
2023-04-20T18:26:48.238Z,1011.66
2023-04-20T18:29:56.119Z,1011.77
2023-04-20T18:33:05.127Z,1011.74
2023-04-20T18:36:13.357Z,1011.70
2023-04-20T18:39:20.588Z,1011.76
2023-04-20T18:42:29.847Z,1011.74
2023-04-20T18:45:37.532Z,1011.70
2023-04-20T18:48:44.955Z,1011.72
2023-04-20T18:51:54.030Z,1011.70
2023-04-20T18:55:02.100Z,1011.66
2023-04-20T18:58:09.321Z,1011.68
2023-04-20T19:01:19.026Z,1011.66
2023-04-20T19:04:26.563Z,1011.67
2023-04-20T19:07:34.514Z,1011.68
2023-04-20T19:10:44.465Z,1011.64
2023-04-20T19:13:52.209Z,1011.69
2023-04-20T19:17:00.042Z,1011.70
2023-04-20T19:20:07.344Z,1011.75
2023-04-20T19:23:16.240Z,1011.68
2023-04-20T19:26:25.468Z,1011.66
2023-04-20T19:29:33.131Z,1011.63
2023-04-20T19:32:33.645Z,1011.57
2023-04-20T19:35:41.434Z,1011.62
2023-04-20T19:38:50.988Z,1011.56
2023-04-20T19:41:52.425Z,1011.51
2023-04-20T19:45:00.900Z,1011.44
2023-04-20T19:48:08.852Z,1011.43
2023-04-20T19:51:18.747Z,1011.40
2023-04-20T19:54:28.444Z,1011.38
2023-04-20T19:57:35.808Z,1011.38
2023-04-20T20:00:43.850Z,1011.38
2023-04-20T20:03:44.158Z,1011.36
2023-04-20T20:06:54.780Z,1011.32
2023-04-20T20:10:03.248Z,1011.30
2023-04-20T20:13:05.169Z,1011.30
2023-04-20T20:16:12.906Z,1011.31
2023-04-20T20:19:21.493Z,1011.33
2023-04-20T20:22:30.820Z,1011.26
2023-04-20T20:25:38.136Z,1011.18
2023-04-20T20:28:45.261Z,1011.15
2023-04-20T20:31:54.720Z,1011.19
2023-04-20T20:34:55.015Z,1011.26
2023-04-20T20:37:54.520Z,1011.19
2023-04-20T20:41:03.648Z,1011.21
2023-04-20T20:44:13.821Z,1011.15
2023-04-20T20:47:15.773Z,1011.13
2023-04-20T20:50:23.489Z,1011.09
2023-04-20T20:53:32.649Z,1011.03
2023-04-20T20:56:40.071Z,1011.03
2023-04-20T20:59:47.975Z,1011.01
2023-04-20T21:02:57.490Z,1011.00
2023-04-20T21:06:04.981Z,1011.02
2023-04-20T21:09:12.739Z,1011.05
2023-04-20T21:12:22.091Z,1011.14
2023-04-20T21:15:31.099Z,1011.13
2023-04-20T21:18:38.953Z,1011.15
2023-04-20T21:21:46.534Z,1011.05
2023-04-20T21:24:55.584Z,1011.09
2023-04-20T21:28:03.222Z,1011.11
2023-04-20T21:31:11.129Z,1011.04
2023-04-20T21:34:20.103Z,1011.05
2023-04-20T21:37:27.673Z,1011.07
2023-04-20T21:40:35.763Z,1010.98
2023-04-20T21:43:44.561Z,1011.05
2023-04-20T21:46:52.024Z,1011.01
2023-04-20T21:49:59.836Z,1010.96
2023-04-20T21:53:08.700Z,1010.97
2023-04-20T21:56:15.918Z,1010.96
2023-04-20T21:59:23.724Z,1010.94
2023-04-20T22:02:31.137Z,1010.88
2023-04-20T22:05:39.882Z,1010.89
2023-04-20T22:08:47.790Z,1010.89
2023-04-20T22:11:55.388Z,1010.78
2023-04-20T22:15:04.268Z,1010.84
2023-04-20T22:18:12.027Z,1010.82
2023-04-20T22:21:19.328Z,1010.84
2023-04-20T22:24:28.178Z,1010.77
2023-04-20T22:27:36.077Z,1010.78
2023-04-20T22:30:43.647Z,1010.73
2023-04-20T22:33:52.533Z,1010.72
2023-04-20T22:36:59.771Z,1010.73
2023-04-20T22:40:07.690Z,1010.74
2023-04-20T22:43:15.126Z,1010.83
2023-04-20T22:46:23.978Z,1010.82
2023-04-20T22:49:31.763Z,1010.76
2023-04-20T22:52:39.268Z,1010.73
2023-04-20T22:55:48.265Z,1010.84
2023-04-20T22:58:55.975Z,1010.78
2023-04-20T23:02:03.121Z,1010.82
2023-04-20T23:05:11.910Z,1010.77
2023-04-20T23:08:19.754Z,1010.81
2023-04-20T23:11:26.957Z,1010.78
2023-04-20T23:14:36.399Z,1010.81
2023-04-20T23:17:44.221Z,1010.78
2023-04-20T23:20:51.493Z,1010.78
2023-04-20T23:23:59.264Z,1010.89
2023-04-20T23:27:08.512Z,1010.89
2023-04-20T23:30:15.602Z,1010.86
2023-04-20T23:33:23.311Z,1010.87
2023-04-20T23:36:32.263Z,1010.85
2023-04-20T23:39:39.849Z,1010.86
2023-04-20T23:42:47.894Z,1010.79
2023-04-20T23:45:56.754Z,1010.76
2023-04-20T23:49:03.845Z,1010.76
2023-04-20T23:52:13.910Z,1010.76
2023-04-20T23:55:13.690Z,1010.73
2023-04-20T23:58:24.202Z,1010.76
